Time;durP1;ratioP1;P1;durP2;ratioP2;P2;SDS_P1;SDS_P2;PMS_P1;PMS_P2;Temp;Humidity;BMP_temperature;BMP_pressure;BME280_temperature;BME280_humidity;BME280_pressure;Samples;Min_cycle;Max_cycle;Signal;HPM_P1;HPM_P2
2022/06/02 00:00:01;;;;;;;0.00;0.00;;;9.30;99.90;;;;;;5052943;28;20131;-81
2022/06/02 00:02:39;;;;;;;0.00;0.00;;;9.30;99.90;;;;;;5035259;28;20079;-81
2022/06/02 00:05:28;;;;;;;0.00;0.00;;;9.20;99.90;;;;;;5035996;28;20049;-81
2022/06/02 00:08:11;;;;;;;0.00;0.00;;;9.20;99.90;;;;;;5034591;28;20136;-81
2022/06/02 00:11:13;;;;;;;0.00;0.00;;;9.10;99.90;;;;;;5036735;28;20065;-81
2022/06/02 00:13:46;;;;;;;0.00;0.00;;;9.10;99.90;;;;;;5018072;28;20524;-81
2022/06/02 00:16:17;;;;;;;0.00;0.00;;;9.00;99.90;;;;;;5003038;28;20536;-81
2022/06/02 00:18:53;;;;;;;0.00;0.00;;;9.00;99.90;;;;;;5019302;28;20050;-81
2022/06/02 00:21:44;;;;;;;0.17;0.10;;;9.00;99.90;;;;;;5019172;28;20111;-81
2022/06/02 00:24:44;;;;;;;0.00;0.00;;;9.00;99.90;;;;;;5019661;28;20141;-81
2022/06/02 00:27:27;;;;;;;0.00;0.00;;;9.00;99.90;;;;;;5002589;28;20051;-81
2022/06/02 00:30:13;;;;;;;0.00;0.00;;;9.00;99.90;;;;;;5019164;28;20140;-81
2022/06/02 00:32:44;;;;;;;0.00;0.00;;;9.00;99.90;;;;;;5019078;28;20041;-81
2022/06/02 00:35:18;;;;;;;0.22;0.00;;;9.00;99.90;;;;;;5002220;28;20055;-81
2022/06/02 00:38:23;;;;;;;0.00;0.00;;;8.90;99.90;;;;;;5019200;28;20057;-81
2022/06/02 00:40:50;;;;;;;0.00;0.00;;;8.90;99.90;;;;;;4979603;28;20046;-81
2022/06/02 00:43:31;;;;;;;0.00;0.00;;;8.80;99.90;;;;;;4979333;28;20250;-81
2022/06/02 00:46:22;;;;;;;0.38;0.20;;;8.90;99.90;;;;;;4979889;28;20422;-81
2022/06/02 00:49:14;;;;;;;0.00;0.00;;;8.90;99.90;;;;;;4995951;28;20046;-81
2022/06/02 00:52:11;;;;;;;0.20;0.20;;;8.90;99.90;;;;;;4979392;28;20085;-81
2022/06/02 00:58:05;;;;;;;0.00;0.00;;;8.90;99.90;;;;;;4979406;28;20076;-81
2022/06/02 01:00:44;;;;;;;0.30;0.00;;;8.90;99.90;;;;;;4979144;28;20058;-81
2022/06/02 01:03:17;;;;;;;0.00;0.00;;;8.90;99.90;;;;;;4979057;28;20144;-81
2022/06/02 01:06:17;;;;;;;0.10;0.10;;;8.90;99.90;;;;;;4995373;28;20070;-81
2022/06/02 01:09:19;;;;;;;0.00;0.00;;;8.90;99.90;;;;;;4979335;28;20058;-81
2022/06/02 01:12:03;;;;;;;0.35;0.30;;;8.80;99.90;;;;;;4978982;28;20069;-81
2022/06/02 01:14:37;;;;;;;0.00;0.00;;;8.90;99.90;;;;;;4979543;28;20086;-81
2022/06/02 01:17:16;;;;;;;0.00;0.00;;;8.90;99.90;;;;;;4987871;28;20092;-81
2022/06/02 01:20:00;;;;;;;0.00;0.00;;;8.80;99.90;;;;;;5055647;28;20045;-81
2022/06/02 01:22:55;;;;;;;0.00;0.00;;;8.90;99.90;;;;;;5055134;28;20045;-81
2022/06/02 01:25:52;;;;;;;0.00;0.00;;;8.70;99.90;;;;;;5038309;28;20059;-81
2022/06/02 01:28:30;;;;;;;0.35;0.00;;;8.70;99.90;;;;;;5038753;28;20048;-81
2022/06/02 01:31:24;;;;;;;0.00;0.00;;;8.60;99.90;;;;;;5055213;28;20045;-81
2022/06/02 01:33:49;;;;;;;0.00;0.00;;;8.60;99.90;;;;;;5055264;28;20485;-81
2022/06/02 01:37:01;;;;;;;0.00;0.00;;;8.60;99.90;;;;;;5038386;28;20059;-81
2022/06/02 01:39:54;;;;;;;0.00;0.00;;;8.50;99.90;;;;;;5017730;28;20049;-81
2022/06/02 01:42:46;;;;;;;0.00;0.00;;;8.50;99.90;;;;;;5017411;28;20091;-81
2022/06/02 01:45:39;;;;;;;0.00;0.00;;;8.50;99.90;;;;;;5001301;28;20049;-81
2022/06/02 01:48:26;;;;;;;0.00;0.00;;;8.50;99.90;;;;;;5001280;28;20144;-81
2022/06/02 01:51:16;;;;;;;0.00;0.00;;;8.50;99.90;;;;;;5001209;28;20089;-81
2022/06/02 01:53:58;;;;;;;0.00;0.00;;;8.50;99.90;;;;;;5017502;28;20128;-81
2022/06/02 01:56:42;;;;;;;0.00;0.00;;;8.50;99.90;;;;;;5001490;28;20450;-81
2022/06/02 01:59:39;;;;;;;0.00;0.00;;;8.40;99.90;;;;;;5001293;28;20052;-81
2022/06/02 02:02:24;;;;;;;0.00;0.00;;;8.50;99.90;;;;;;5000837;28;20447;-81
2022/06/02 02:05:24;;;;;;;0.00;0.00;;;8.40;99.90;;;;;;5000298;28;20050;-81
2022/06/02 02:08:08;;;;;;;0.52;0.28;;;8.40;99.90;;;;;;4995256;28;20053;-81
2022/06/02 02:11:07;;;;;;;0.00;0.00;;;8.30;99.90;;;;;;5017182;28;20144;-81
2022/06/02 02:13:51;;;;;;;0.00;0.00;;;8.20;99.90;;;;;;5017439;28;20045;-81
2022/06/02 02:16:44;;;;;;;0.03;0.00;;;8.20;99.90;;;;;;5020523;28;20049;-81
2022/06/02 02:19:53;;;;;;;0.00;0.00;;;8.20;99.90;;;;;;5054590;28;20055;-81
2022/06/02 02:22:19;;;;;;;0.08;0.00;;;8.10;99.90;;;;;;5054012;28;20179;-81
2022/06/02 02:24:50;;;;;;;0.00;0.00;;;8.10;99.90;;;;;;5037799;28;20152;-81
2022/06/02 02:27:16;;;;;;;0.00;0.00;;;8.10;99.90;;;;;;5038170;28;20053;-81
2022/06/02 02:30:00;;;;;;;1.35;0.10;;;8.10;99.90;;;;;;5037632;28;20546;-81
2022/06/02 02:33:00;;;;;;;0.32;0.00;;;8.10;99.90;;;;;;5053930;28;20056;-81
2022/06/02 02:36:04;;;;;;;0.00;0.00;;;8.20;99.90;;;;;;5037741;28;20057;-81
2022/06/02 02:38:44;;;;;;;0.00;0.00;;;8.00;99.90;;;;;;5054009;28;20401;-81
2022/06/02 02:41:22;;;;;;;0.00;0.00;;;8.00;99.90;;;;;;5037460;28;20064;-81
2022/06/02 02:44:03;;;;;;;0.00;0.00;;;7.90;99.90;;;;;;5054610;28;20063;-81
2022/06/02 02:47:06;;;;;;;0.00;0.00;;;7.80;99.90;;;;;;5037634;28;20067;-81
2022/06/02 02:49:43;;;;;;;0.00;0.00;;;7.80;99.90;;;;;;5053759;28;20049;-81
2022/06/02 02:52:50;;;;;;;0.00;0.00;;;7.80;99.90;;;;;;5037736;28;20048;-81
2022/06/02 02:55:41;;;;;;;0.00;0.00;;;7.90;99.90;;;;;;5016069;28;20056;-81
2022/06/02 02:58:09;;;;;;;0.00;0.00;;;7.80;99.90;;;;;;4999781;28;20054;-81
2022/06/02 03:00:43;;;;;;;0.00;0.00;;;7.80;99.90;;;;;;4999414;28;20053;-81
2022/06/02 03:03:30;;;;;;;0.00;0.00;;;7.70;99.90;;;;;;4999354;28;20081;-81
2022/06/02 03:06:19;;;;;;;0.17;0.17;;;7.70;99.90;;;;;;5016118;28;20049;-81
2022/06/02 03:09:02;;;;;;;0.10;0.03;;;7.70;99.90;;;;;;5016084;28;20054;-81
2022/06/02 03:11:34;;;;;;;0.00;0.00;;;7.60;99.90;;;;;;4999096;28;20057;-81
2022/06/02 03:14:18;;;;;;;0.00;0.00;;;7.60;99.90;;;;;;5015868;28;20049;-81
2022/06/02 03:16:47;;;;;;;0.10;0.10;;;7.60;99.90;;;;;;5015965;28;20057;-81
2022/06/02 03:19:18;;;;;;;0.00;0.00;;;7.60;99.90;;;;;;5015868;28;20055;-81
2022/06/02 03:21:57;;;;;;;0.00;0.00;;;7.60;99.90;;;;;;4998772;28;20049;-81
2022/06/02 03:25:00;;;;;;;0.00;0.00;;;7.60;99.90;;;;;;5015890;28;20041;-81
2022/06/02 03:27:53;;;;;;;0.00;0.00;;;7.50;99.90;;;;;;4999355;28;20075;-81
2022/06/02 03:30:23;;;;;;;0.00;0.00;;;7.50;99.90;;;;;;5052502;28;20053;-82
2022/06/02 03:33:23;;;;;;;0.00;0.00;;;7.50;99.90;;;;;;5036728;28;20068;-81
2022/06/02 03:36:16;;;;;;;0.00;0.00;;;7.50;99.90;;;;;;5053330;28;20041;-81
2022/06/02 03:39:22;;;;;;;0.00;0.00;;;7.50;99.90;;;;;;5053451;28;20056;-81
2022/06/02 03:42:03;;;;;;;0.55;0.20;;;7.50;99.90;;;;;;5015408;28;20081;-81
2022/06/02 03:44:47;;;;;;;0.00;0.00;;;7.50;99.90;;;;;;5015570;28;20041;-81
2022/06/02 03:47:46;;;;;;;0.00;0.00;;;7.50;99.90;;;;;;5014809;28;20611;-81
2022/06/02 03:50:39;;;;;;;0.00;0.00;;;7.50;99.90;;;;;;4999087;28;20099;-81
2022/06/02 03:53:37;;;;;;;0.00;0.00;;;7.60;99.90;;;;;;4998711;28;20053;-81
2022/06/02 03:56:40;;;;;;;0.00;0.00;;;7.60;99.90;;;;;;4996995;28;20096;-81
2022/06/02 03:59:24;;;;;;;0.10;0.05;;;7.60;99.90;;;;;;4998298;28;20161;-81
2022/06/02 04:02:05;;;;;;;0.00;0.00;;;7.60;99.90;;;;;;4997807;28;20052;-81
2022/06/02 04:04:49;;;;;;;0.00;0.00;;;7.70;99.90;;;;;;4998800;28;20065;-81
2022/06/02 04:07:33;;;;;;;0.00;0.00;;;7.70;99.90;;;;;;5015293;28;20058;-81
2022/06/02 04:10:16;;;;;;;0.00;0.00;;;7.80;99.90;;;;;;5014996;28;20485;-81
2022/06/02 04:16:10;;;;;;;0.00;0.00;;;7.80;99.90;;;;;;5015030;28;20053;-82
2022/06/02 04:18:44;;;;;;;0.00;0.00;;;7.90;99.90;;;;;;5019341;28;20065;-81
2022/06/02 04:21:22;;;;;;;0.00;0.00;;;7.90;99.90;;;;;;5052385;28;20091;-81
2022/06/02 04:24:19;;;;;;;0.15;0.00;;;8.00;99.90;;;;;;5035398;28;20049;-81
2022/06/02 04:26:47;;;;;;;0.55;0.05;;;8.10;99.90;;;;;;5052902;28;20199;-82
2022/06/02 04:29:25;;;;;;;0.45;0.45;;;8.10;99.90;;;;;;5052402;28;20052;-82
2022/06/02 04:32:08;;;;;;;0.25;0.10;;;8.20;99.90;;;;;;5035761;28;20049;-81
2022/06/02 04:34:53;;;;;;;0.13;0.00;;;8.20;99.90;;;;;;5052189;28;20056;-82
2022/06/02 04:37:28;;;;;;;;;;;8.20;99.90;;;;;;5036528;28;20049;-82
2022/06/02 04:40:12;;;;;;;0.00;0.00;;;8.30;99.90;;;;;;5052469;28;19927;-82
2022/06/02 04:43:01;;;;;;;0.00;0.00;;;8.30;99.90;;;;;;5051895;28;20071;-82
2022/06/02 04:45:45;;;;;;;0.00;0.00;;;8.30;99.90;;;;;;5036064;28;20045;-82
2022/06/02 04:48:26;;;;;;;0.00;0.00;;;8.40;99.90;;;;;;5051909;28;20060;-82
2022/06/02 04:51:14;;;;;;;0.10;0.10;;;8.40;99.90;;;;;;5052193;28;20103;-81
2022/06/02 04:54:02;;;;;;;0.30;0.30;;;8.50;99.90;;;;;;5036077;28;20048;-81
2022/06/02 04:56:41;;;;;;;0.05;0.03;;;8.60;99.90;;;;;;5052222;28;20049;-81
2022/06/02 04:59:30;;;;;;;0.52;0.00;;;8.60;99.90;;;;;;5052492;28;20497;-81
2022/06/02 05:02:14;;;;;;;0.30;0.00;;;8.60;99.90;;;;;;5055236;28;20061;-81
2022/06/02 05:04:47;;;;;;;0.10;0.10;;;8.60;99.90;;;;;;5055640;28;20060;-81
2022/06/02 05:07:22;;;;;;;0.00;0.00;;;8.70;99.90;;;;;;5055860;28;20137;-81
2022/06/02 05:10:18;;;;;;;0.00;0.00;;;8.70;99.90;;;;;;5055745;28;20045;-81
2022/06/02 05:13:12;;;;;;;0.00;0.00;;;8.80;99.90;;;;;;5001829;28;20053;-81
2022/06/02 05:15:44;;;;;;;1.33;0.20;;;8.80;99.90;;;;;;5001855;28;20144;-81
2022/06/02 05:18:22;;;;;;;0.05;0.05;;;8.90;99.90;;;;;;5001761;28;20061;-81
2022/06/02 05:21:24;;;;;;;0.00;0.00;;;8.90;99.90;;;;;;5001650;28;20096;-81
2022/06/02 05:24:34;;;;;;;0.00;0.00;;;9.00;99.90;;;;;;5018116;28;20053;-81
2022/06/02 05:27:16;;;;;;;0.32;0.32;;;9.20;99.90;;;;;;4978794;28;20109;-80
2022/06/02 05:29:59;;;;;;;0.10;0.00;;;9.20;99.90;;;;;;4978963;28;20116;-81
2022/06/02 05:32:55;;;;;;;0.00;0.00;;;9.40;99.90;;;;;;4978769;28;20054;-81
2022/06/02 05:35:48;;;;;;;1.08;0.65;;;9.50;99.90;;;;;;4978772;28;20046;-81
2022/06/02 05:38:23;;;;;;;0.00;0.00;;;9.70;99.90;;;;;;4994931;28;20090;-81
2022/06/02 05:40:57;;;;;;;0.10;0.10;;;9.80;99.90;;;;;;4978550;28;20108;-81
2022/06/02 05:43:40;;;;;;;0.15;0.15;;;10.00;99.90;;;;;;4978323;28;20057;-81
2022/06/02 05:46:24;;;;;;;0.15;0.15;;;10.10;99.90;;;;;;4978684;28;20054;-81
2022/06/02 05:49:28;;;;;;;0.25;0.20;;;10.30;99.90;;;;;;4978582;28;20117;-81
2022/06/02 05:52:22;;;;;;;0.00;0.00;;;10.40;99.90;;;;;;4978519;28;20059;-81
2022/06/02 05:55:15;;;;;;;0.03;0.00;;;10.50;99.90;;;;;;4978466;28;20517;-81
2022/06/02 05:58:22;;;;;;;0.10;0.10;;;10.60;99.90;;;;;;4978097;28;20379;-81
2022/06/02 06:01:06;;;;;;;2.50;0.08;;;10.70;99.90;;;;;;4977563;28;20090;-81
2022/06/02 06:03:44;;;;;;;0.00;0.00;;;10.70;99.90;;;;;;5005512;28;20053;-81
2022/06/02 06:06:22;;;;;;;0.35;0.35;;;10.80;99.90;;;;;;5038103;28;20060;-81
2022/06/02 06:08:50;;;;;;;0.63;0.10;;;10.80;99.90;;;;;;5054282;28;20429;-82
2022/06/02 06:11:43;;;;;;;0.00;0.00;;;10.90;99.90;;;;;;5054011;28;20049;-81
2022/06/02 06:14:17;;;;;;;0.10;0.03;;;11.00;99.90;;;;;;5054456;28;20053;-81
2022/06/02 06:17:01;;;;;;;1.65;0.43;;;11.10;99.90;;;;;;5038038;28;20519;-82
2022/06/02 06:19:30;;;;;;;0.00;0.00;;;11.20;99.90;;;;;;5054015;28;20057;-81
2022/06/02 06:22:35;;;;;;;0.10;0.00;;;11.30;99.90;;;;;;5037829;28;20144;-81
2022/06/02 06:25:12;;;;;;;1.60;0.40;;;11.30;99.90;;;;;;4999759;28;20076;-81
2022/06/02 06:27:51;;;;;;;0.20;0.10;;;11.40;99.90;;;;;;5012896;28;20045;-82
2022/06/02 06:30:44;;;;;;;0.75;0.28;;;11.50;99.90;;;;;;5015688;28;20057;-82
2022/06/02 06:33:29;;;;;;;0.00;0.00;;;11.50;99.90;;;;;;4922522;29;20519;-82
2022/06/02 06:35:57;;;;;;;0.00;0.00;;;11.50;99.90;;;;;;4939457;29;20051;-82
2022/06/02 06:38:30;;;;;;;0.20;0.10;;;11.60;99.90;;;;;;4939113;29;20451;-82
2022/06/02 06:41:22;;;;;;;0.00;0.00;;;11.60;99.90;;;;;;4939022;29;20063;-83
2022/06/02 06:43:57;;;;;;;0.35;0.08;;;11.70;99.90;;;;;;4939343;29;20098;-83
2022/06/02 06:46:26;;;;;;;0.08;0.08;;;11.70;99.90;;;;;;4938952;29;20094;-82
2022/06/02 06:48:57;;;;;;;0.20;0.10;;;11.90;99.90;;;;;;4938722;29;20074;-82
2022/06/02 06:51:22;;;;;;;0.32;0.10;;;11.90;99.90;;;;;;4938960;28;20055;-82
2022/06/02 06:54:11;;;;;;;0.00;0.00;;;12.00;99.90;;;;;;4938894;29;20150;-82
2022/06/02 06:56:51;;;;;;;0.00;0.00;;;12.10;99.90;;;;;;4939205;29;20432;-82
2022/06/02 06:59:46;;;;;;;0.10;0.10;;;12.20;99.90;;;;;;4938922;29;20551;-82
2022/06/02 07:02:12;;;;;;;0.15;0.10;;;12.30;99.90;;;;;;4941059;28;20059;-82
2022/06/02 07:04:45;;;;;;;0.03;0.00;;;12.40;99.90;;;;;;4958037;28;20054;-82
2022/06/02 07:07:29;;;;;;;0.80;0.10;;;12.50;99.90;;;;;;4973922;28;20133;-82
2022/06/02 07:10:13;;;;;;;0.20;0.10;;;12.60;99.90;;;;;;5011782;28;20115;-82
2022/06/02 07:12:51;;;;;;;0.03;0.03;;;12.80;99.90;;;;;;5037121;28;20049;-82
2022/06/02 07:15:55;;;;;;;1.40;0.68;;;12.90;99.90;;;;;;5053929;28;20045;-82
2022/06/02 07:18:44;;;;;;;0.00;0.00;;;13.00;99.90;;;;;;5053504;28;20049;-82
2022/06/02 07:21:19;;;;;;;0.00;0.00;;;13.00;99.90;;;;;;5052411;28;20136;-82
2022/06/02 07:24:15;;;;;;;0.00;0.00;;;12.90;99.90;;;;;;5053134;28;20052;-82
2022/06/02 07:27:03;;;;;;;0.68;0.13;;;12.90;99.90;;;;;;5053406;28;20135;-82
2022/06/02 07:29:31;;;;;;;0.00;0.00;;;12.80;99.90;;;;;;5053120;28;20044;-81
2022/06/02 07:32:05;;;;;;;0.00;0.00;;;12.80;99.90;;;;;;5053174;28;20084;-82
2022/06/02 07:35:13;;;;;;;0.70;0.55;;;12.90;99.90;;;;;;5053244;28;20045;-82
2022/06/02 07:38:12;;;;;;;0.00;0.00;;;13.20;99.90;;;;;;5053001;28;20131;-82
2022/06/02 07:41:15;;;;;;;0.20;0.10;;;13.40;99.90;;;;;;5052912;28;20487;-82
2022/06/02 07:44:12;;;;;;;0.00;0.00;;;13.70;99.90;;;;;;5053063;28;20045;-82
2022/06/02 07:47:01;;;;;;;0.60;0.40;;;14.00;99.90;;;;;;5052723;28;20045;-82
2022/06/02 07:49:54;;;;;;;0.00;0.00;;;14.00;99.90;;;;;;5036432;28;20080;-82
2022/06/02 07:52:51;;;;;;;0.00;0.00;;;14.20;99.90;;;;;;5052928;28;20053;-82
2022/06/02 07:55:20;;;;;;;0.00;0.00;;;14.30;99.90;;;;;;5052825;28;20045;-82
2022/06/02 07:57:54;;;;;;;0.00;0.00;;;14.40;99.90;;;;;;5036293;28;20080;-82
2022/06/02 08:00:23;;;;;;;0.00;0.00;;;14.40;99.90;;;;;;5052812;28;20041;-82
2022/06/02 08:03:34;;;;;;;0.00;0.00;;;14.30;99.90;;;;;;5052171;28;20061;-82
2022/06/02 08:06:03;;;;;;;0.00;0.00;;;14.30;99.90;;;;;;5015354;28;20049;-82
2022/06/02 08:08:51;;;;;;;0.00;0.00;;;14.40;99.90;;;;;;5015061;28;20486;-83
2022/06/02 08:11:46;;;;;;;0.00;0.00;;;14.60;99.90;;;;;;4999147;28;20054;-83
2022/06/02 08:14:41;;;;;;;0.40;0.00;;;14.80;99.90;;;;;;5016128;28;20080;-83
2022/06/02 08:17:07;;;;;;;0.00;0.00;;;14.90;99.90;;;;;;5015095;28;20476;-82
2022/06/02 08:19:57;;;;;;;0.00;0.00;;;14.80;99.90;;;;;;5015072;28;20057;-83
2022/06/02 08:22:43;;;;;;;0.00;0.00;;;14.90;99.90;;;;;;5015177;28;20053;-81
2022/06/02 08:25:14;;;;;;;0.13;0.00;;;15.00;99.90;;;;;;5014793;28;20053;-82
2022/06/02 08:28:14;;;;;;;0.20;0.20;;;15.20;99.90;;;;;;5015010;28;20065;-84
2022/06/02 08:31:16;;;;;;;0.00;0.00;;;15.30;99.90;;;;;;4998600;28;20545;-80
2022/06/02 08:33:54;;;;;;;0.52;0.30;;;15.40;99.90;;;;;;5017303;28;20076;-80
2022/06/02 08:36:32;;;;;;;0.00;0.00;;;15.30;99.90;;;;;;5002655;28;20096;-79
2022/06/02 08:39:10;;;;;;;0.00;0.00;;;15.40;99.90;;;;;;5002800;28;20515;-81
2022/06/02 08:42:06;;;;;;;1.38;0.00;;;15.50;99.90;;;;;;5002514;28;20056;-81
2022/06/02 08:45:04;;;;;;;0.00;0.00;;;15.60;99.90;;;;;;5039947;28;20157;-81
2022/06/02 08:48:08;;;;;;;0.00;0.00;;;15.50;99.90;;;;;;5018997;28;20096;-82
2022/06/02 08:51:00;;;;;;;0.00;0.00;;;15.50;99.90;;;;;;5002603;28;20053;-82
2022/06/02 08:53:45;;;;;;;0.10;0.10;;;15.80;99.90;;;;;;5017481;28;20111;-83
2022/06/02 08:56:41;;;;;;;0.00;0.00;;;16.10;99.90;;;;;;5017739;28;20067;-82
2022/06/02 08:59:34;;;;;;;0.08;0.00;;;16.30;99.90;;;;;;5001400;28;20104;-83
2022/06/02 09:02:24;;;;;;;0.00;0.00;;;16.50;99.90;;;;;;5018169;28;20068;-83
2022/06/02 09:05:24;;;;;;;0.00;0.00;;;16.30;99.90;;;;;;5002006;28;20144;-82
2022/06/02 09:08:27;;;;;;;0.00;0.00;;;16.10;99.90;;;;;;5018369;28;20045;-83
2022/06/02 09:11:12;;;;;;;0.00;0.00;;;16.20;99.90;;;;;;5016802;28;20061;-83
2022/06/02 09:13:47;;;;;;;0.52;0.10;;;16.40;99.90;;;;;;5017521;28;20076;-83
2022/06/02 09:16:34;;;;;;;0.00;0.00;;;16.50;99.90;;;;;;5018489;28;20595;-82
2022/06/02 09:19:34;;;;;;;0.00;0.00;;;16.40;99.90;;;;;;5018043;28;20200;-83
2022/06/02 09:22:03;;;;;;;0.00;0.00;;;16.40;99.90;;;;;;5014870;28;20048;-83
2022/06/02 09:24:51;;;;;;;0.00;0.00;;;16.40;99.90;;;;;;5028085;28;20123;-82
2022/06/02 09:27:35;;;;;;;0.03;0.03;;;16.60;99.90;;;;;;5058754;28;20088;-83
2022/06/02 09:30:05;;;;;;;0.40;0.15;;;16.60;99.90;;;;;;5040486;28;20057;-83
2022/06/02 09:33:33;;;;;;;0.00;0.00;;;16.40;99.90;;;;;;5038638;28;20076;-83
2022/06/02 09:36:29;;;;;;;0.00;0.00;;;16.10;99.90;;;;;;5054873;28;20183;-83
2022/06/02 09:39:05;;;;;;;0.98;0.30;;;16.10;99.90;;;;;;5037648;28;20052;-83
2022/06/02 09:41:41;;;;;;;0.00;0.00;;;16.10;99.90;;;;;;5037880;28;20448;-83
2022/06/02 09:44:27;;;;;;;0.00;0.00;;;16.00;99.90;;;;;;5037551;28;20053;-83
2022/06/02 09:47:23;;;;;;;1.10;0.20;;;16.00;99.90;;;;;;5020770;28;20404;-83
2022/06/02 09:49:57;;;;;;;0.00;0.00;;;15.90;99.90;;;;;;5020974;28;20167;-83
2022/06/02 09:52:37;;;;;;;0.00;0.00;;;16.10;99.90;;;;;;5020979;28;20048;-83
2022/06/02 09:55:09;;;;;;;0.00;0.00;;;16.50;99.90;;;;;;5037955;28;20044;-83
2022/06/02 09:57:56;;;;;;;0.00;0.00;;;17.00;99.90;;;;;;5021260;28;20044;-83
2022/06/02 10:00:43;;;;;;;0.00;0.00;;;17.50;99.90;;;;;;5020681;28;20055;-84
2022/06/02 10:03:27;;;;;;;0.00;0.00;;;17.90;99.90;;;;;;5036886;28;20111;-83
2022/06/02 10:06:07;;;;;;;0.20;0.15;;;17.90;99.90;;;;;;5037251;28;20048;-83
2022/06/02 10:08:39;;;;;;;0.00;0.00;;;18.00;99.90;;;;;;5037302;28;20147;-83
2022/06/02 10:11:32;;;;;;;0.00;0.00;;;17.90;99.90;;;;;;5020763;28;20477;-83
2022/06/02 10:14:20;;;;;;;0.00;0.00;;;17.90;99.90;;;;;;4978102;28;20141;-82
2022/06/02 10:17:13;;;;;;;0.00;0.00;;;17.90;99.90;;;;;;4998013;28;20072;-82
2022/06/02 10:20:16;;;;;;;0.00;0.00;;;18.00;99.80;;;;;;4997626;28;20050;-82
2022/06/02 10:22:41;;;;;;;0.00;0.00;;;18.10;99.90;;;;;;4997136;28;20038;-82
2022/06/02 10:25:47;;;;;;;0.00;0.00;;;18.00;99.40;;;;;;4997236;28;20072;-83
2022/06/02 10:28:50;;;;;;;0.00;0.00;;;18.20;99.90;;;;;;4997390;28;20111;-82
2022/06/02 10:31:24;;;;;;;0.00;0.00;;;18.60;99.40;;;;;;4997207;28;20494;-82
2022/06/02 10:34:08;;;;;;;0.00;0.00;;;18.70;99.30;;;;;;4997245;28;20042;-83
2022/06/02 10:36:54;;;;;;;0.00;0.00;;;18.50;99.30;;;;;;4997513;28;20552;-83
2022/06/02 10:39:29;;;;;;;0.00;0.00;;;18.30;99.90;;;;;;4981082;28;20053;-83
2022/06/02 10:42:15;;;;;;;0.00;0.00;;;18.20;99.90;;;;;;4997063;28;20054;-83
2022/06/02 10:44:59;;;;;;;0.00;0.00;;;18.20;98.10;;;;;;4997116;28;20061;-83
2022/06/02 10:48:14;;;;;;;0.03;0.00;;;18.00;99.20;;;;;;4997556;28;20145;-83
2022/06/02 10:50:58;;;;;;;0.00;0.00;;;17.70;99.50;;;;;;5012137;28;20052;-83
2022/06/02 10:53:43;;;;;;;0.00;0.00;;;17.90;99.20;;;;;;5037898;28;20686;-83
2022/06/02 10:56:11;;;;;;;0.00;0.00;;;18.20;97.10;;;;;;5054038;28;20044;-83
2022/06/02 10:58:43;;;;;;;0.15;0.13;;;18.70;99.90;;;;;;5037468;28;20433;-83
2022/06/02 11:01:24;;;;;;;0.10;0.10;;;19.00;99.10;;;;;;5053515;28;20049;-84
2022/06/02 11:04:13;;;;;;;0.00;0.00;;;18.80;96.40;;;;;;5037185;28;20086;-84
2022/06/02 11:07:16;;;;;;;0.10;0.10;;;18.30;97.50;;;;;;5036060;28;20060;-83
2022/06/02 11:10:09;;;;;;;0.00;0.00;;;18.10;98.40;;;;;;5019669;28;20048;-83
2022/06/02 11:12:54;;;;;;;0.35;0.00;;;18.40;99.90;;;;;;5019639;28;20148;-84
2022/06/02 11:15:25;;;;;;;0.00;0.00;;;18.80;99.00;;;;;;4981660;28;20054;-84
2022/06/02 11:18:09;;;;;;;1.55;0.10;;;19.30;99.50;;;;;;4976620;28;20057;-85
2022/06/02 11:21:06;;;;;;;0.00;0.00;;;19.60;97.90;;;;;;4960286;28;20058;-84
2022/06/02 11:24:04;;;;;;;0.00;0.00;;;19.70;96.50;;;;;;4960335;28;20065;-84
2022/06/02 11:26:41;;;;;;;0.00;0.00;;;20.00;94.40;;;;;;4898729;29;20059;-83
2022/06/02 11:29:52;;;;;;;0.10;0.10;;;20.20;95.20;;;;;;4900306;29;20067;-83
2022/06/02 11:32:27;;;;;;;0.00;0.00;;;20.30;95.00;;;;;;4915947;29;20056;-83
2022/06/02 11:35:13;;;;;;;0.00;0.00;;;20.50;93.80;;;;;;4900122;29;20048;-83
2022/06/02 11:37:57;;;;;;;0.00;0.00;;;20.20;92.70;;;;;;4900736;29;20506;-84
2022/06/02 11:40:34;;;;;;;0.03;0.00;;;20.00;94.10;;;;;;4900424;29;20060;-83
2022/06/02 11:43:13;;;;;;;0.00;0.00;;;20.20;94.60;;;;;;4903377;29;20191;-83
2022/06/02 11:46:24;;;;;;;0.00;0.00;;;20.50;95.30;;;;;;4934920;29;20142;-83
2022/06/02 11:49:32;;;;;;;0.00;0.00;;;20.60;92.90;;;;;;4919516;29;20054;-83
2022/06/02 11:52:24;;;;;;;0.00;0.00;;;20.70;93.00;;;;;;4935797;28;20093;-83
2022/06/02 11:55:42;;;;;;;0.00;0.00;;;20.70;84.70;;;;;;4993173;28;20073;-83
2022/06/02 11:58:24;;;;;;;0.00;0.00;;;21.00;85.00;;;;;;4901488;29;20118;-83
2022/06/02 12:01:00;;;;;;;0.00;0.00;;;21.10;86.80;;;;;;4902840;29;20147;-84
2022/06/02 12:03:44;;;;;;;0.00;0.00;;;21.10;80.80;;;;;;4945171;28;20128;-84
2022/06/02 12:06:13;;;;;;;0.00;0.00;;;20.90;81.20;;;;;;4976276;28;20047;-83
2022/06/02 12:09:26;;;;;;;0.00;0.00;;;20.80;81.40;;;;;;4996078;28;20153;-84
2022/06/02 12:12:30;;;;;;;0.00;0.00;;;21.10;85.70;;;;;;4982734;28;20449;-83
2022/06/02 12:15:33;;;;;;;0.00;0.00;;;21.50;85.00;;;;;;4943897;28;20051;-83
2022/06/02 12:18:14;;;;;;;0.00;0.00;;;21.70;87.30;;;;;;4944139;29;20054;-84
2022/06/02 12:21:18;;;;;;;0.00;0.00;;;21.30;82.80;;;;;;4944106;28;20069;-83
2022/06/02 12:23:52;;;;;;;0.32;0.20;;;20.80;81.60;;;;;;4865334;29;20388;-83
2022/06/02 12:26:36;;;;;;;0.00;0.00;;;20.50;80.50;;;;;;4850343;29;20149;-83
2022/06/02 12:29:38;;;;;;;0.05;0.05;;;20.10;85.50;;;;;;4850118;29;20049;-83
2022/06/02 12:32:13;;;;;;;0.00;0.00;;;19.80;82.50;;;;;;4850414;29;20080;-84
2022/06/02 12:34:44;;;;;;;0.00;0.00;;;19.60;85.20;;;;;;4879492;29;20060;-83
2022/06/02 12:37:34;;;;;;;0.00;0.00;;;19.40;81.40;;;;;;4887487;29;20057;-83
2022/06/02 12:40:30;;;;;;;0.03;0.03;;;19.60;87.00;;;;;;4887232;29;20068;-83
2022/06/02 12:43:20;;;;;;;0.00;0.00;;;20.10;87.70;;;;;;4887459;29;20088;-83
2022/06/02 12:45:53;;;;;;;0.00;0.00;;;20.70;87.90;;;;;;4887112;29;20065;-84
2022/06/02 12:48:37;;;;;;;0.00;0.00;;;20.80;90.40;;;;;;4887218;29;20147;-84
2022/06/02 12:51:05;;;;;;;0.00;0.00;;;20.70;88.80;;;;;;4891900;29;20048;-84
2022/06/02 12:53:58;;;;;;;0.00;0.00;;;20.50;89.20;;;;;;4943717;29;20102;-83
2022/06/02 12:56:41;;;;;;;0.00;0.00;;;20.20;87.50;;;;;;4928197;29;20392;-84
2022/06/02 12:59:30;;;;;;;0.00;0.00;;;19.80;88.40;;;;;;4928115;29;20098;-83
2022/06/02 13:02:12;;;;;;;0.10;0.10;;;19.60;88.20;;;;;;4978541;28;20471;-83
2022/06/02 13:05:22;;;;;;;0.00;0.00;;;19.40;87.70;;;;;;4946711;28;20083;-83
2022/06/02 13:08:07;;;;;;;0.00;0.00;;;19.20;90.00;;;;;;4924711;29;20085;-83
2022/06/02 13:11:13;;;;;;;0.00;0.00;;;19.00;89.50;;;;;;4908988;29;20043;-84
2022/06/02 13:13:52;;;;;;;0.00;0.00;;;18.80;85.60;;;;;;4889538;29;20056;-83
2022/06/02 13:16:55;;;;;;;0.00;0.00;;;18.90;86.60;;;;;;4905854;29;20139;-83
2022/06/02 13:19:23;;;;;;;0.00;0.00;;;19.40;84.60;;;;;;4904338;29;20488;-83
2022/06/02 13:22:10;;;;;;;0.00;0.00;;;19.80;83.00;;;;;;4901961;29;20556;-83
2022/06/02 13:24:49;;;;;;;0.00;0.00;;;20.20;84.40;;;;;;4902659;29;20044;-83
2022/06/02 13:27:42;;;;;;;0.00;0.00;;;20.50;83.50;;;;;;4902486;29;20092;-83
2022/06/02 13:30:45;;;;;;;0.00;0.00;;;21.00;82.70;;;;;;4886994;29;20051;-83
2022/06/02 13:33:48;;;;;;;0.00;0.00;;;21.00;85.70;;;;;;4886978;29;20055;-82
2022/06/02 13:36:25;;;;;;;0.00;0.00;;;20.70;84.00;;;;;;4902529;29;20507;-82
2022/06/02 13:39:34;;;;;;;0.00;0.00;;;20.40;80.40;;;;;;4930015;28;20413;-83
2022/06/02 13:42:37;;;;;;;0.00;0.00;;;20.10;87.20;;;;;;4921165;29;20437;-83
2022/06/02 13:45:35;;;;;;;0.00;0.00;;;19.90;89.40;;;;;;4921470;29;20059;-83
2022/06/02 13:48:22;;;;;;;0.00;0.00;;;19.60;90.70;;;;;;4945938;28;20066;-83
2022/06/02 13:51:08;;;;;;;0.20;0.20;;;19.50;89.00;;;;;;4943315;28;20151;-82
2022/06/02 14:00:00;;;;;;;0.00;0.00;;;19.10;87.40;;;;;;4959394;28;19952;-83
2022/06/02 14:02:46;;;;;;;0.00;0.00;;;19.30;85.50;;;;;;4958287;28;20050;-82
2022/06/02 14:05:34;;;;;;;0.00;0.00;;;19.70;88.50;;;;;;4959241;28;20601;-82
2022/06/02 14:08:03;;;;;;;0.00;0.00;;;20.30;90.60;;;;;;4959142;28;20090;-83
2022/06/02 14:10:35;;;;;;;0.00;0.00;;;20.60;84.70;;;;;;4958873;28;20487;-83
2022/06/02 14:13:48;;;;;;;0.00;0.00;;;20.90;82.40;;;;;;4943192;28;20054;-83
2022/06/02 14:16:35;;;;;;;0.00;0.00;;;21.10;82.40;;;;;;4994528;28;20054;-83
2022/06/02 14:19:24;;;;;;;0.00;0.00;;;21.00;73.60;;;;;;4992597;28;20054;-82
2022/06/02 14:21:58;;;;;;;0.00;0.00;;;21.10;76.50;;;;;;4997622;28;20096;-82
2022/06/02 14:24:39;;;;;;;0.00;0.00;;;21.30;80.40;;;;;;4997624;28;20152;-82
2022/06/02 14:27:07;;;;;;;0.00;0.00;;;21.50;73.60;;;;;;4981086;28;20069;-82
2022/06/02 14:30:04;;;;;;;0.00;0.00;;;21.50;77.30;;;;;;4981001;28;20069;-82
2022/06/02 14:32:51;;;;;;;0.00;0.00;;;21.50;79.00;;;;;;4942618;28;20175;-82
2022/06/02 14:35:35;;;;;;;0.00;0.00;;;21.50;79.10;;;;;;4942403;28;20055;-82
2022/06/02 14:38:13;;;;;;;0.00;0.00;;;21.80;77.70;;;;;;4942610;28;20053;-82
2022/06/02 14:41:01;;;;;;;0.00;0.00;;;21.90;76.70;;;;;;4942369;28;20146;-83